Bryn Mawr, California
Current Conditions -  °F | °C
As of 5:50 PM on Sunday 25 Jan 2015 (Local Time) from KSBD Reporting Station
Broken Clouds Broken Clouds  
Wind Chill: 64°   Ceiling: 15000
Heat Index: 64°   Visibility: 10mi
Dew Point: 30°   Wind: 0mph
Humidity: 28%   Direction: NA
Pressure: 30.01"   Gusts: NA
Location:  34.05°N, 117.23°W
Report Text: KSBD 260150Z 00000KT 10SM BKN150 18/M01 A3001
Loading
Personal Weather Stations






























Interactive Weather Map New forecast layout! Learn more

10-Day Weather Forecast

Advertisements
Track Severe Weather on mobile